Time;durP1;ratioP1;P1;durP2;ratioP2;P2;SDS_P1;SDS_P2;PMS_P1;PMS_P2;Temp;Humidity;BMP_temperature;BMP_pressure;BME280_temperature;BME280_humidity;BME280_pressure;Samples;Min_cycle;Max_cycle;Signal;HPM_P1;HPM_P2
2022/06/12 00:02:13;;;;;;;5.70;3.17;;;;;;;;;;4734474;30;20056;-58
2022/06/12 00:04:41;;;;;;;4.82;2.70;;;;;;;;;;4734283;30;20573;-59
2022/06/12 00:07:08;;;;;;;4.30;2.95;;;;;;;;;;4747761;30;20114;-59
2022/06/12 00:09:35;;;;;;;6.28;2.67;;;;;;;;;;4734212;30;20061;-59
2022/06/12 00:12:03;;;;;;;6.07;3.63;;;;;;;;;;4733726;30;20040;-58
2022/06/12 00:14:31;;;;;;;4.90;2.53;;;;;;;;;;4734383;30;20053;-59
2022/06/12 00:16:59;;;;;;;4.35;2.67;;;;;;;;;;4734603;30;20053;-59
2022/06/12 00:19:26;;;;;;;5.32;3.00;;;;;;;;;;4734346;30;20080;-59
2022/06/12 00:21:54;;;;;;;5.05;3.20;;;;;;;;;;4734348;30;20052;-63
2022/06/12 00:24:21;;;;;;;3.67;3.10;;;;;;;;;;4734244;30;20448;-59
2022/06/12 00:26:52;;;;;;;4.10;3.10;;;;;;;;;;4734337;30;20045;-58
2022/06/12 00:29:29;;;;;;;3.85;3.10;;;;;;;;;;4734152;30;20307;-59
2022/06/12 00:32:03;;;;;;;6.28;3.22;;;;;;;;;;4734258;30;20056;-58
2022/06/12 00:34:38;;;;;;;4.32;2.67;;;;;;;;;;4734090;30;20144;-59
2022/06/12 00:37:06;;;;;;;7.63;3.03;;;;;;;;;;4734002;30;20122;-59
2022/06/12 00:39:34;;;;;;;4.40;3.05;;;;;;;;;;4733986;30;20036;-59
2022/06/12 00:42:03;;;;;;;5.22;3.20;;;;;;;;;;4733948;30;20083;-58
2022/06/12 00:44:39;;;;;;;3.95;3.03;;;;;;;;;;4734072;30;20123;-59
2022/06/12 00:47:11;;;;;;;4.55;3.30;;;;;;;;;;4734025;30;20482;-58
2022/06/12 00:49:53;;;;;;;5.40;3.13;;;;;;;;;;4733820;30;20367;-58
2022/06/12 00:52:43;;;;;;;4.20;3.08;;;;;;;;;;4747257;30;20184;-59
2022/06/12 00:55:29;;;;;;;6.82;2.83;;;;;;;;;;4733673;30;20061;-59
2022/06/12 00:58:08;;;;;;;5.57;3.38;;;;;;;;;;4719418;30;20041;-57
2022/06/12 01:00:37;;;;;;;116.32;53.33;;;;;;;;;;4733671;30;20067;-58
2022/06/12 01:03:06;;;;;;;26.55;12.63;;;;;;;;;;4733861;30;20561;-59
2022/06/12 01:08:21;;;;;;;4.88;3.20;;;;;;;;;;4733611;30;20128;-59
2022/06/12 01:10:52;;;;;;;5.93;3.28;;;;;;;;;;4733700;30;20056;-58
2022/06/12 01:13:24;;;;;;;5.90;3.08;;;;;;;;;;4733761;30;20128;-58
2022/06/12 01:15:55;;;;;;;4.85;3.08;;;;;;;;;;4733548;30;20069;-58
2022/06/12 01:18:31;;;;;;;4.30;2.80;;;;;;;;;;4733637;30;20053;-58
2022/06/12 01:21:39;;;;;;;6.70;3.08;;;;;;;;;;4733745;30;20087;-58
2022/06/12 01:24:23;;;;;;;5.55;3.17;;;;;;;;;;4737142;30;20532;-58
2022/06/12 01:27:06;;;;;;;5.05;3.40;;;;;;;;;;4736985;30;20119;-59
2022/06/12 01:29:52;;;;;;;3.72;2.65;;;;;;;;;;4737171;30;20091;-58
2022/06/12 01:32:32;;;;;;;5.13;3.10;;;;;;;;;;4737049;30;20059;-58
2022/06/12 01:35:23;;;;;;;4.07;3.00;;;;;;;;;;4737132;30;20048;-59
2022/06/12 01:38:01;;;;;;;4.82;2.35;;;;;;;;;;4736962;30;20079;-58
2022/06/12 01:40:30;;;;;;;4.18;2.95;;;;;;;;;;4737142;30;20095;-58
2022/06/12 01:42:57;;;;;;;5.97;3.13;;;;;;;;;;4750181;30;20052;-59
2022/06/12 01:45:43;;;;;;;7.15;3.20;;;;;;;;;;4737013;30;20429;-58
2022/06/12 01:48:39;;;;;;;4.15;2.90;;;;;;;;;;4736863;30;20072;-58
2022/06/12 01:51:19;;;;;;;5.78;3.38;;;;;;;;;;4736652;30;20064;-59
2022/06/12 01:54:14;;;;;;;5.35;3.00;;;;;;;;;;4736645;30;20052;-58
2022/06/12 01:56:53;;;;;;;5.63;3.30;;;;;;;;;;4736576;30;20044;-60
2022/06/12 01:59:40;;;;;;;4.72;3.40;;;;;;;;;;4736493;30;20040;-59
2022/06/12 02:02:25;;;;;;;5.18;3.00;;;;;;;;;;4736353;30;20103;-59
2022/06/12 02:05:06;;;;;;;3.85;3.03;;;;;;;;;;4736371;30;20056;-58
2022/06/12 02:07:42;;;;;;;5.85;3.40;;;;;;;;;;4736607;30;20514;-58
2022/06/12 02:10:25;;;;;;;5.95;2.97;;;;;;;;;;4736238;30;20128;-59
2022/06/12 02:13:23;;;;;;;5.05;3.17;;;;;;;;;;4736462;30;20120;-59
2022/06/12 02:15:59;;;;;;;3.95;3.05;;;;;;;;;;4737182;30;20139;-59
2022/06/12 02:18:36;;;;;;;4.25;3.22;;;;;;;;;;4749570;30;20057;-58
2022/06/12 02:21:25;;;;;;;6.32;3.50;;;;;;;;;;4736460;30;20076;-59
2022/06/12 02:24:10;;;;;;;5.00;3.13;;;;;;;;;;4736229;30;20520;-59
2022/06/12 02:27:01;;;;;;;4.88;3.20;;;;;;;;;;4735967;30;20048;-59
2022/06/12 02:29:41;;;;;;;5.45;3.10;;;;;;;;;;4735801;30;20067;-59
2022/06/12 02:32:27;;;;;;;5.03;3.28;;;;;;;;;;4736085;30;20050;-58
2022/06/12 02:35:01;;;;;;;5.28;3.13;;;;;;;;;;4748636;30;20514;-59
2022/06/12 02:37:35;;;;;;;4.05;2.95;;;;;;;;;;4735809;30;20128;-58
2022/06/12 02:40:10;;;;;;;4.95;3.38;;;;;;;;;;4736125;30;20056;-58
2022/06/12 02:42:42;;;;;;;5.75;2.90;;;;;;;;;;4735828;30;20140;-59
2022/06/12 02:45:16;;;;;;;4.18;3.03;;;;;;;;;;4735818;30;20041;-59
2022/06/12 02:47:45;;;;;;;4.70;3.17;;;;;;;;;;4735507;30;20048;-59
2022/06/12 02:50:15;;;;;;;5.53;3.10;;;;;;;;;;4735627;30;20044;-59
2022/06/12 02:53:01;;;;;;;4.90;3.47;;;;;;;;;;4735771;30;20107;-59
2022/06/12 02:55:55;;;;;;;3.72;3.33;;;;;;;;;;4735568;30;20048;-59
2022/06/12 02:58:40;;;;;;;;;;;;;;;;;;4734764;30;20047;-59
2022/06/12 03:01:16;;;;;;;4.25;2.65;;;;;;;;;;4735566;30;19937;-59
2022/06/12 03:03:43;;;;;;;5.03;3.00;;;;;;;;;;4735195;30;20116;-59
2022/06/12 03:06:11;;;;;;;4.70;2.58;;;;;;;;;;4735525;30;20056;-59
2022/06/12 03:08:44;;;;;;;5.70;2.75;;;;;;;;;;4735119;30;20060;-59
2022/06/12 03:11:21;;;;;;;4.38;2.90;;;;;;;;;;4735530;30;20056;-59
2022/06/12 03:13:51;;;;;;;3.30;2.58;;;;;;;;;;4735369;30;20111;-59
2022/06/12 03:16:31;;;;;;;4.63;2.83;;;;;;;;;;4734191;30;20051;-59
2022/06/12 03:19:03;;;;;;;6.60;2.95;;;;;;;;;;4734995;30;20062;-59
2022/06/12 03:21:49;;;;;;;8.35;2.47;;;;;;;;;;4735146;30;20124;-59
2022/06/12 03:24:36;;;;;;;3.55;2.72;;;;;;;;;;4735037;30;20056;-59
2022/06/12 03:27:22;;;;;;;3.38;2.30;;;;;;;;;;4734217;30;20049;-59
2022/06/12 03:30:02;;;;;;;3.97;2.42;;;;;;;;;;4735039;30;20122;-59
2022/06/12 03:32:33;;;;;;;3.50;2.78;;;;;;;;;;4735002;30;20069;-59
2022/06/12 03:35:25;;;;;;;4.63;2.67;;;;;;;;;;4734809;30;20110;-59
2022/06/12 03:38:19;;;;;;;3.35;2.42;;;;;;;;;;4734942;30;20045;-59
2022/06/12 03:41:19;;;;;;;3.15;2.33;;;;;;;;;;4734869;30;20049;-58
2022/06/12 03:44:00;;;;;;;4.05;2.40;;;;;;;;;;4734643;30;20068;-59
2022/06/12 03:46:40;;;;;;;3.03;2.22;;;;;;;;;;4748164;30;20044;-59
2022/06/12 03:49:14;;;;;;;4.85;1.92;;;;;;;;;;4734768;30;20052;-59
2022/06/12 03:51:51;;;;;;;4.68;1.92;;;;;;;;;;4734512;30;20052;-59
2022/06/12 03:54:22;;;;;;;3.97;1.73;;;;;;;;;;4734354;30;20045;-59
2022/06/12 04:00:09;;;;;;;2.63;1.80;;;;;;;;;;4717181;30;20124;-59
2022/06/12 04:02:41;;;;;;;3.28;1.85;;;;;;;;;;4716958;30;20418;-58
2022/06/12 04:05:11;;;;;;;4.05;1.73;;;;;;;;;;4717016;30;20541;-59
2022/06/12 04:07:48;;;;;;;3.63;1.63;;;;;;;;;;4717133;30;20139;-58
2022/06/12 04:10:20;;;;;;;3.15;1.70;;;;;;;;;;4716982;30;20107;-58
2022/06/12 04:12:49;;;;;;;2.70;1.67;;;;;;;;;;4716938;30;20057;-58
2022/06/12 04:15:22;;;;;;;2.95;1.70;;;;;;;;;;4716681;30;20405;-58
2022/06/12 04:17:50;;;;;;;3.13;1.75;;;;;;;;;;4716919;30;20514;-58
2022/06/12 04:20:27;;;;;;;2.75;1.85;;;;;;;;;;4716830;30;20079;-59
2022/06/12 04:23:02;;;;;;;4.53;1.60;;;;;;;;;;4716776;30;20057;-59
2022/06/12 04:25:53;;;;;;;4.03;2.13;;;;;;;;;;4716420;30;20087;-58
2022/06/12 04:28:26;;;;;;;3.72;1.77;;;;;;;;;;4716630;30;20040;-59
2022/06/12 04:30:54;;;;;;;;;;;;;;;;;;4717096;30;20049;-59
2022/06/12 04:34:19;;;;;;;2.80;1.80;;;;;;;;;;4716650;30;20000;-58
2022/06/12 04:36:50;;;;;;;2.53;1.58;;;;;;;;;;4679860;30;20064;-59
2022/06/12 04:39:23;;;;;;;3.65;1.77;;;;;;;;;;4710521;30;20065;-59
2022/06/12 04:41:51;;;;;;;2.47;1.50;;;;;;;;;;4716294;30;20063;-58
2022/06/12 04:44:19;;;;;;;2.53;1.30;;;;;;;;;;4716436;30;20045;-59
2022/06/12 04:46:49;;;;;;;3.35;1.30;;;;;;;;;;4716400;30;20069;-59
2022/06/12 04:49:20;;;;;;;3.08;1.52;;;;;;;;;;4716548;30;20165;-59
2022/06/12 04:51:49;;;;;;;3.17;1.50;;;;;;;;;;4716140;30;20055;-59
2022/06/12 04:54:17;;;;;;;3.80;1.50;;;;;;;;;;4716489;30;20124;-59
2022/06/12 04:56:45;;;;;;;2.63;1.40;;;;;;;;;;4715987;30;20049;-59
2022/06/12 04:59:14;;;;;;;5.47;1.45;;;;;;;;;;4728824;30;20449;-59
2022/06/12 05:01:42;;;;;;;3.03;1.23;;;;;;;;;;4733962;30;20044;-63
2022/06/12 05:04:12;;;;;;;1.95;1.08;;;;;;;;;;4733535;30;20053;-59
2022/06/12 05:06:41;;;;;;;1.83;1.00;;;;;;;;;;4733977;30;20049;-59
2022/06/12 05:09:11;;;;;;;4.00;1.20;;;;;;;;;;4733854;30;20049;-59
2022/06/12 05:11:38;;;;;;;4.00;1.35;;;;;;;;;;4733792;30;20063;-59
2022/06/12 05:14:06;;;;;;;3.72;1.45;;;;;;;;;;4733781;30;20110;-59
2022/06/12 05:16:47;;;;;;;3.40;1.23;;;;;;;;;;4733572;30;20049;-58
2022/06/12 05:19:19;;;;;;;7.45;0.88;;;;;;;;;;4733827;30;20044;-59
2022/06/12 05:21:48;;;;;;;3.47;1.30;;;;;;;;;;4733292;30;20059;-59
2022/06/12 05:24:15;;;;;;;3.58;1.10;;;;;;;;;;4733971;30;20523;-59
2022/06/12 05:26:45;;;;;;;2.63;1.20;;;;;;;;;;4733864;30;20494;-58
2022/06/12 05:29:19;;;;;;;2.38;1.10;;;;;;;;;;4733842;30;20048;-58
2022/06/12 05:31:46;;;;;;;5.43;1.23;;;;;;;;;;4733485;30;20053;-59
2022/06/12 05:34:15;;;;;;;3.30;1.05;;;;;;;;;;4733698;30;20048;-59
2022/06/12 05:36:43;;;;;;;3.50;1.02;;;;;;;;;;4733676;30;20524;-59
2022/06/12 05:39:11;;;;;;;3.03;1.02;;;;;;;;;;4733613;30;20055;-59
2022/06/12 05:41:39;;;;;;;7.82;1.27;;;;;;;;;;4733445;30;20848;-58
2022/06/12 05:44:06;;;;;;;4.18;1.20;;;;;;;;;;4733287;30;20049;-58
2022/06/12 05:46:34;;;;;;;5.30;1.40;;;;;;;;;;4733550;30;20049;-61
2022/06/12 05:49:02;;;;;;;4.03;1.00;;;;;;;;;;4733356;30;20076;-59
2022/06/12 05:51:30;;;;;;;2.75;1.17;;;;;;;;;;4733322;30;20056;-59
2022/06/12 05:53:57;;;;;;;4.47;1.85;;;;;;;;;;4733591;30;20453;-59
2022/06/12 05:56:28;;;;;;;3.80;1.40;;;;;;;;;;4733328;30;20049;-59
2022/06/12 05:58:56;;;;;;;3.38;1.23;;;;;;;;;;4733270;30;20528;-59
2022/06/12 06:01:24;;;;;;;4.03;1.45;;;;;;;;;;4733282;30;20051;-59
2022/06/12 06:03:52;;;;;;;2.47;1.25;;;;;;;;;;4733091;30;20103;-58
2022/06/12 06:06:29;;;;;;;2.60;1.20;;;;;;;;;;4733291;30;20136;-58
2022/06/12 06:09:02;;;;;;;3.47;1.42;;;;;;;;;;4734385;30;20128;-59
2022/06/12 06:11:32;;;;;;;4.07;1.52;;;;;;;;;;4736470;30;20433;-59
2022/06/12 06:13:59;;;;;;;3.17;1.50;;;;;;;;;;4736339;30;20141;-59
2022/06/12 06:16:26;;;;;;;5.38;1.30;;;;;;;;;;4736490;30;20052;-59
2022/06/12 06:18:55;;;;;;;4.22;1.65;;;;;;;;;;4736364;30;20060;-59
2022/06/12 06:21:22;;;;;;;4.85;1.45;;;;;;;;;;4736155;30;20056;-58
2022/06/12 06:23:50;;;;;;;3.95;1.50;;;;;;;;;;4736275;30;20049;-58
2022/06/12 06:26:17;;;;;;;4.45;1.58;;;;;;;;;;4736148;30;20055;-59
2022/06/12 06:28:48;;;;;;;6.57;1.67;;;;;;;;;;4736540;30;20053;-59
2022/06/12 06:31:16;;;;;;;4.03;1.50;;;;;;;;;;4736370;30;20048;-60
2022/06/12 06:33:43;;;;;;;4.72;1.27;;;;;;;;;;4736075;30;20056;-59
2022/06/12 06:36:11;;;;;;;5.53;1.63;;;;;;;;;;4736067;30;20110;-58
2022/06/12 06:38:42;;;;;;;4.22;1.60;;;;;;;;;;4735819;30;20053;-59
2022/06/12 06:41:09;;;;;;;6.13;1.60;;;;;;;;;;4735952;30;20524;-58
2022/06/12 06:46:23;;;;;;;3.63;1.23;;;;;;;;;;4735949;30;20169;-58
2022/06/12 06:48:51;;;;;;;2.78;1.20;;;;;;;;;;4735721;30;20051;-58
2022/06/12 06:51:18;;;;;;;9.18;1.60;;;;;;;;;;4735779;30;20050;-55
2022/06/12 06:53:46;;;;;;;3.55;1.45;;;;;;;;;;4735895;30;20509;-59
2022/06/12 06:56:13;;;;;;;11.02;1.85;;;;;;;;;;4735767;30;20506;-58
2022/06/12 06:58:41;;;;;;;4.28;1.42;;;;;;;;;;4735598;30;20055;-58
2022/06/12 07:01:08;;;;;;;3.92;1.55;;;;;;;;;;4735787;30;20052;-59
2022/06/12 07:03:42;;;;;;;6.30;1.90;;;;;;;;;;4735187;30;20420;-58
2022/06/12 07:06:12;;;;;;;6.00;1.90;;;;;;;;;;4735578;30;20545;-58
2022/06/12 07:08:39;;;;;;;5.68;1.52;;;;;;;;;;4735551;30;20505;-59
2022/06/12 07:11:07;;;;;;;3.78;1.30;;;;;;;;;;4735404;30;20045;-58
2022/06/12 07:13:35;;;;;;;5.80;1.65;;;;;;;;;;4735340;30;20085;-59
2022/06/12 07:16:02;;;;;;;4.72;3.63;;;;;;;;;;4735333;30;20049;-58
2022/06/12 07:18:29;;;;;;;14.50;7.18;;;;;;;;;;4735256;30;20063;-58
2022/06/12 07:21:01;;;;;;;3.65;1.50;;;;;;;;;;4734980;30;20041;-59
2022/06/12 07:23:30;;;;;;;5.05;1.50;;;;;;;;;;4735089;30;20143;-59
2022/06/12 07:26:04;;;;;;;3.65;1.50;;;;;;;;;;4735347;30;20116;-58
2022/06/12 07:28:35;;;;;;;6.00;1.80;;;;;;;;;;4735233;30;20044;-58
2022/06/12 07:31:03;;;;;;;5.28;1.63;;;;;;;;;;4734947;30;20048;-59
2022/06/12 07:33:31;;;;;;;6.50;1.60;;;;;;;;;;4735175;30;20079;-59
2022/06/12 07:35:59;;;;;;;6.85;1.60;;;;;;;;;;4735020;30;20045;-59
2022/06/12 07:38:28;;;;;;;11.45;4.88;;;;;;;;;;4735009;30;20435;-59
2022/06/12 07:40:59;;;;;;;6.05;2.40;;;;;;;;;;4734783;30;20102;-59
2022/06/12 07:43:28;;;;;;;5.60;1.60;;;;;;;;;;4734695;30;20049;-60
2022/06/12 07:45:56;;;;;;;13.95;1.88;;;;;;;;;;4734858;30;20053;-60
2022/06/12 07:48:24;;;;;;;10.35;1.73;;;;;;;;;;4735075;30;20045;-59
2022/06/12 07:50:54;;;;;;;10.68;1.67;;;;;;;;;;4734840;30;20120;-59
2022/06/12 07:53:22;;;;;;;5.72;1.30;;;;;;;;;;4734994;30;20549;-60
2022/06/12 07:55:50;;;;;;;4.82;1.50;;;;;;;;;;4734713;30;20049;-60
2022/06/12 07:58:19;;;;;;;6.93;1.50;;;;;;;;;;4734429;30;20123;-59
2022/06/12 08:00:56;;;;;;;6.15;1.67;;;;;;;;;;4734939;30;20056;-56
2022/06/12 08:03:26;;;;;;;18.98;12.00;;;;;;;;;;4733387;30;20114;-57
2022/06/12 08:05:54;;;;;;;5.70;1.80;;;;;;;;;;4734694;30;20064;-59
2022/06/12 08:08:21;;;;;;;10.18;1.90;;;;;;;;;;4734515;30;20107;-59
2022/06/12 08:10:49;;;;;;;4.78;1.50;;;;;;;;;;4733334;30;20391;-58
2022/06/12 08:13:17;;;;;;;5.80;1.38;;;;;;;;;;4734479;30;20045;-59
2022/06/12 08:15:48;;;;;;;8.43;1.60;;;;;;;;;;4734284;30;20541;-59
2022/06/12 08:18:16;;;;;;;4.85;1.90;;;;;;;;;;4734332;30;20114;-59
2022/06/12 08:20:47;;;;;;;5.72;1.63;;;;;;;;;;4734279;30;20052;-60
2022/06/12 08:23:27;;;;;;;4.50;1.50;;;;;;;;;;4734114;30;20375;-60
2022/06/12 08:26:04;;;;;;;6.72;1.90;;;;;;;;;;4734633;30;20053;-59
2022/06/12 08:28:37;;;;;;;6.13;1.33;;;;;;;;;;4734341;30;20473;-59
2022/06/12 08:31:06;;;;;;;4.43;1.20;;;;;;;;;;4733641;30;20048;-59
2022/06/12 08:33:37;;;;;;;6.32;1.90;;;;;;;;;;4734055;30;20049;-59
2022/06/12 08:36:07;;;;;;;4.82;1.80;;;;;;;;;;4734241;30;20049;-58
2022/06/12 08:38:34;;;;;;;5.45;1.92;;;;;;;;;;4734155;30;20052;-58
2022/06/12 08:41:17;;;;;;;52.03;39.22;;;;;;;;;;4733941;30;20044;-57
2022/06/12 08:43:54;;;;;;;;;;;;;;;;;;4734339;30;20103;-58
2022/06/12 08:46:43;;;;;;;6.07;1.67;;;;;;;;;;4734233;30;20299;-59
2022/06/12 08:49:29;;;;;;;4.88;1.35;;;;;;;;;;4734039;30;20088;-57
2022/06/12 08:52:29;;;;;;;8.40;1.80;;;;;;;;;;4733964;30;20573;-58
2022/06/12 08:55:25;;;;;;;4.72;1.40;;;;;;;;;;4733902;30;20131;-59
2022/06/12 08:57:59;;;;;;;6.90;1.52;;;;;;;;;;4734076;30;21683;-58
2022/06/12 09:00:30;;;;;;;7.05;2.05;;;;;;;;;;4733656;30;20083;-59
2022/06/12 09:02:58;;;;;;;5.57;1.65;;;;;;;;;;4733785;30;20045;-59
2022/06/12 09:05:55;;;;;;;5.35;1.92;;;;;;;;;;4733671;30;20073;-53
2022/06/12 09:08:51;;;;;;;9.18;3.22;;;;;;;;;;4733866;30;20057;-58
2022/06/12 09:11:29;;;;;;;7.15;1.70;;;;;;;;;;4734073;30;20417;-60
2022/06/12 09:14:05;;;;;;;4.93;1.60;;;;;;;;;;4733857;30;20053;-58
2022/06/12 09:16:35;;;;;;;5.45;1.77;;;;;;;;;;4733872;30;20090;-59
2022/06/12 09:19:14;;;;;;;6.50;1.63;;;;;;;;;;4733826;30;20410;-58
2022/06/12 09:22:20;;;;;;;5.20;1.80;;;;;;;;;;4733568;30;20063;-59
2022/06/12 09:25:26;;;;;;;4.82;1.55;;;;;;;;;;4741320;30;20126;-59
2022/06/12 09:28:03;;;;;;;6.45;2.03;;;;;;;;;;4749338;30;20088;-59
2022/06/12 09:30:55;;;;;;;6.03;1.95;;;;;;;;;;4748993;30;20052;-59
2022/06/12 09:33:53;;;;;;;6.82;1.50;;;;;;;;;;4751538;30;20425;-59
2022/06/12 09:36:51;;;;;;;7.25;2.28;;;;;;;;;;4751267;30;20052;-56
2022/06/12 09:39:49;;;;;;;23.88;12.15;;;;;;;;;;4751355;30;20417;-58
2022/06/12 09:42:35;;;;;;;7.07;2.10;;;;;;;;;;4750959;30;20081;-58
2022/06/12 09:45:14;;;;;;;5.22;1.50;;;;;;;;;;4754557;30;20059;-57
2022/06/12 09:47:48;;;;;;;6.00;1.90;;;;;;;;;;4754466;30;20523;-58
2022/06/12 09:50:34;;;;;;;8.20;1.75;;;;;;;;;;4754547;30;20051;-58
2022/06/12 09:53:20;;;;;;;7.50;1.75;;;;;;;;;;4754380;30;20523;-59
2022/06/12 09:55:55;;;;;;;6.25;1.48;;;;;;;;;;4754399;30;20059;-59
2022/06/12 09:58:33;;;;;;;9.30;1.92;;;;;;;;;;4754524;30;20048;-59
2022/06/12 10:01:11;;;;;;;5.80;1.52;;;;;;;;;;4754247;30;20528;-58
2022/06/12 10:03:51;;;;;;;9.15;1.83;;;;;;;;;;4753856;30;20053;-59
2022/06/12 10:06:42;;;;;;;12.05;5.85;;;;;;;;;;4752973;30;20052;-57
2022/06/12 10:09:29;;;;;;;6.35;1.80;;;;;;;;;;4754139;30;20510;-59
2022/06/12 10:12:02;;;;;;;6.47;1.75;;;;;;;;;;4754159;30;20127;-58
2022/06/12 10:14:40;;;;;;;4.68;1.75;;;;;;;;;;4754269;30;20122;-59
2022/06/12 10:17:32;;;;;;;6.43;1.63;;;;;;;;;;4753854;30;20129;-59
2022/06/12 10:20:07;;;;;;;6.55;1.70;;;;;;;;;;4753778;30;20056;-60
2022/06/12 10:22:47;;;;;;;5.25;1.83;;;;;;;;;;4754005;30;20553;-59
2022/06/12 10:25:32;;;;;;;6.80;2.13;;;;;;;;;;4753885;30;20405;-59
2022/06/12 10:28:14;;;;;;;6.47;1.98;;;;;;;;;;4753750;30;20052;-59
2022/06/12 10:30:57;;;;;;;6.70;1.75;;;;;;;;;;4753905;30;20051;-58
2022/06/12 10:33:35;;;;;;;40.93;21.03;;;;;;;;;;4753765;30;20048;-59
2022/06/12 10:36:05;;;;;;;12.95;2.75;;;;;;;;;;4753769;30;20048;-59
2022/06/12 10:38:36;;;;;;;6.18;1.60;;;;;;;;;;4753689;30;20552;-59
2022/06/12 10:41:19;;;;;;;6.95;1.75;;;;;;;;;;4753572;30;20060;-60
2022/06/12 10:43:48;;;;;;;13.05;2.10;;;;;;;;;;4753588;30;20105;-59
2022/06/12 10:46:20;;;;;;;8.07;1.83;;;;;;;;;;4753611;30;20114;-60
2022/06/12 10:49:01;;;;;;;5.80;1.90;;;;;;;;;;4753469;30;20402;-60
2022/06/12 10:51:35;;;;;;;8.18;1.70;;;;;;;;;;4753388;30;20060;-59
2022/06/12 10:54:17;;;;;;;5.78;1.60;;;;;;;;;;4752915;30;20409;-59
2022/06/12 10:57:17;;;;;;;6.68;1.65;;;;;;;;;;4753379;30;20044;-60
2022/06/12 11:00:07;;;;;;;6.97;1.80;;;;;;;;;;4753270;30;20088;-59
2022/06/12 11:03:04;;;;;;;5.00;1.60;;;;;;;;;;4753318;30;20131;-59
2022/06/12 11:06:00;;;;;;;4.97;1.70;;;;;;;;;;4752890;30;20056;-59
2022/06/12 11:08:49;;;;;;;6.75;1.83;;;;;;;;;;4753315;30;20044;-58
2022/06/12 11:11:41;;;;;;;4.28;1.40;;;;;;;;;;4753182;30;20079;-58
2022/06/12 11:14:26;;;;;;;4.38;1.33;;;;;;;;;;4753119;30;20040;-59
2022/06/12 11:16:57;;;;;;;8.48;1.90;;;;;;;;;;4753474;30;20044;-59
2022/06/12 11:19:49;;;;;;;5.88;1.55;;;;;;;;;;4753037;30;20048;-58
2022/06/12 11:22:29;;;;;;;4.45;1.13;;;;;;;;;;4752774;30;20056;-58
2022/06/12 11:25:35;;;;;;;5.72;1.60;;;;;;;;;;4753149;30;20078;-59
2022/06/12 11:28:57;;;;;;;5.80;1.30;;;;;;;;;;4752743;30;20055;-59
2022/06/12 11:31:36;;;;;;;3.60;1.05;;;;;;;;;;4750968;30;20056;-59
2022/06/12 11:34:28;;;;;;;7.18;1.60;;;;;;;;;;4752785;30;20441;-59
2022/06/12 11:37:08;;;;;;;7.03;1.40;;;;;;;;;;4752778;30;20060;-59
2022/06/12 11:39:42;;;;;;;;;;;;;;;;;;4752904;30;20069;-58
2022/06/12 11:42:40;;;;;;;8.38;1.48;;;;;;;;;;4752656;30;19936;-58
2022/06/12 11:45:39;;;;;;;5.50;1.40;;;;;;;;;;4763900;30;20040;-59
2022/06/12 11:48:26;;;;;;;8.55;1.77;;;;;;;;;;4752463;30;20085;-58
2022/06/12 11:51:13;;;;;;;7.10;1.83;;;;;;;;;;4752673;30;20072;-59
2022/06/12 11:53:58;;;;;;;6.72;1.70;;;;;;;;;;4752144;30;20056;-58
2022/06/12 11:56:51;;;;;;;6.25;1.75;;;;;;;;;;4752641;30;20048;-59
2022/06/12 11:59:27;;;;;;;7.32;1.70;;;;;;;;;;4752443;30;20052;-58
2022/06/12 12:01:54;;;;;;;4.93;1.45;;;;;;;;;;4752309;30;20048;-59
2022/06/12 12:04:32;;;;;;;7.10;1.75;;;;;;;;;;4752122;30;20063;-58
2022/06/12 12:07:13;;;;;;;6.93;1.63;;;;;;;;;;4751234;30;20062;-60
2022/06/12 12:09:49;;;;;;;8.43;1.77;;;;;;;;;;4752118;30;20563;-60
2022/06/12 12:12:23;;;;;;;10.00;1.65;;;;;;;;;;4751863;30;20054;-59
2022/06/12 12:14:52;;;;;;;7.00;1.85;;;;;;;;;;4752009;30;20075;-60
2022/06/12 12:17:24;;;;;;;11.70;2.00;;;;;;;;;;4752153;30;20116;-60
2022/06/12 12:20:04;;;;;;;7.22;2.05;;;;;;;;;;4751930;30;20429;-57
2022/06/12 12:22:42;;;;;;;6.15;1.70;;;;;;;;;;4751684;30;20048;-60
2022/06/12 12:25:28;;;;;;;6.40;2.45;;;;;;;;;;4751866;30;20056;-60
2022/06/12 12:27:59;;;;;;;5.53;1.83;;;;;;;;;;4752049;30;20048;-61
2022/06/12 12:30:30;;;;;;;4.60;1.25;;;;;;;;;;4752060;30;20044;-56
2022/06/12 12:33:02;;;;;;;5.75;1.67;;;;;;;;;;4751817;30;20098;-60
2022/06/12 12:41:22;;;;;;;9.50;3.17;;;;;;;;;;4751728;30;20056;-58
2022/06/12 12:43:55;;;;;;;6.30;2.40;;;;;;;;;;4751630;30;20059;-60
2022/06/12 12:46:27;;;;;;;4.90;1.42;;;;;;;;;;4751934;30;20052;-60
2022/06/12 12:48:54;;;;;;;3.72;1.42;;;;;;;;;;4751826;30;20536;-60
2022/06/12 12:51:42;;;;;;;8.40;1.95;;;;;;;;;;4751729;30;20046;-60
2022/06/12 12:54:16;;;;;;;5.88;1.77;;;;;;;;;;4751563;30;20459;-58
2022/06/12 12:56:55;;;;;;;5.78;2.15;;;;;;;;;;4751703;30;20080;-60
2022/06/12 12:59:38;;;;;;;6.90;1.65;;;;;;;;;;4751669;30;20076;-61
2022/06/12 13:02:21;;;;;;;7.18;2.50;;;;;;;;;;4751490;30;20509;-60
2022/06/12 13:04:52;;;;;;;6.30;1.35;;;;;;;;;;4751296;30;20070;-57
2022/06/12 13:07:22;;;;;;;8.02;2.13;;;;;;;;;;4751381;30;20072;-59
2022/06/12 13:09:58;;;;;;;7.38;1.33;;;;;;;;;;4751349;30;20513;-60
2022/06/12 13:12:51;;;;;;;4.93;1.63;;;;;;;;;;4751539;30;20048;-60
2022/06/12 13:15:51;;;;;;;6.47;1.40;;;;;;;;;;4751440;30;20063;-59
2022/06/12 13:18:27;;;;;;;4.63;1.50;;;;;;;;;;4752638;30;20056;-60
2022/06/12 13:21:06;;;;;;;11.18;1.60;;;;;;;;;;4755156;30;20054;-60
2022/06/12 13:23:58;;;;;;;7.50;1.63;;;;;;;;;;4754877;30;20048;-60
2022/06/12 13:26:28;;;;;;;6.53;1.67;;;;;;;;;;4755238;30;20414;-59
2022/06/12 13:28:59;;;;;;;6.55;1.85;;;;;;;;;;4755133;30;20406;-61
2022/06/12 13:31:33;;;;;;;6.38;1.75;;;;;;;;;;4754773;30;20521;-59
2022/06/12 13:34:04;;;;;;;4.60;1.40;;;;;;;;;;4754957;30;20520;-61
2022/06/12 13:36:39;;;;;;;4.70;1.42;;;;;;;;;;4754714;30;20056;-59
2022/06/12 13:39:26;;;;;;;4.75;1.33;;;;;;;;;;4754637;30;20052;-61
2022/06/12 13:42:18;;;;;;;12.10;1.85;;;;;;;;;;4754769;30;20048;-60
2022/06/12 13:44:47;;;;;;;5.70;1.73;;;;;;;;;;4754516;30;20052;-61
2022/06/12 13:47:34;;;;;;;13.20;2.63;;;;;;;;;;4754660;30;20066;-60
2022/06/12 13:50:33;;;;;;;17.83;8.00;;;;;;;;;;4754615;30;20048;-59
2022/06/12 13:53:06;;;;;;;6.03;1.73;;;;;;;;;;4754544;30;20048;-60
2022/06/12 13:55:46;;;;;;;6.47;1.92;;;;;;;;;;4754419;30;20044;-60
2022/06/12 13:58:33;;;;;;;4.97;1.83;;;;;;;;;;4754408;30;20036;-62
2022/06/12 14:01:28;;;;;;;8.93;1.80;;;;;;;;;;4754278;30;20047;-60
2022/06/12 14:04:04;;;;;;;12.05;1.98;;;;;;;;;;4751893;30;20064;-59
2022/06/12 14:06:35;;;;;;;5.50;1.20;;;;;;;;;;4754160;30;20058;-59
2022/06/12 14:09:14;;;;;;;5.40;1.17;;;;;;;;;;4754357;30;20071;-62
2022/06/12 14:11:42;;;;;;;6.53;1.33;;;;;;;;;;4754100;30;20051;-61
2022/06/12 14:14:36;;;;;;;6.35;1.67;;;;;;;;;;4753047;30;20049;-61
2022/06/12 14:17:15;;;;;;;;;;;;;;;;;;4754599;30;20535;-58
2022/06/12 14:19:43;;;;;;;4.60;1.40;;;;;;;;;;4753892;30;19933;-56
2022/06/12 14:22:18;;;;;;;30.40;16.90;;;;;;;;;;4754060;30;20044;-58
2022/06/12 14:25:17;;;;;;;6.13;1.92;;;;;;;;;;4753848;30;20063;-60
2022/06/12 14:27:59;;;;;;;6.10;1.63;;;;;;;;;;4749683;30;20413;-60
2022/06/12 14:30:43;;;;;;;5.55;1.50;;;;;;;;;;4753051;30;20123;-57
2022/06/12 14:33:33;;;;;;;6.57;1.30;;;;;;;;;;4753753;30;20064;-61
2022/06/12 14:36:07;;;;;;;7.13;1.63;;;;;;;;;;4753659;30;20048;-60
2022/06/12 14:38:35;;;;;;;5.93;1.80;;;;;;;;;;4753567;30;20058;-61
2022/06/12 14:41:16;;;;;;;9.15;1.95;;;;;;;;;;4753752;30;20045;-60
2022/06/12 14:43:46;;;;;;;;;;;;;;;;;;4753903;30;20056;-59
2022/06/12 14:46:16;;;;;;;5.82;1.70;;;;;;;;;;4753632;30;19926;-61
2022/06/12 14:48:44;;;;;;;8.38;1.77;;;;;;;;;;4753606;30;20056;-60
2022/06/12 14:51:14;;;;;;;6.40;1.58;;;;;;;;;;4753602;30;20052;-59
2022/06/12 14:53:42;;;;;;;8.20;1.70;;;;;;;;;;4753547;30;20418;-60
2022/06/12 14:56:22;;;;;;;5.97;1.45;;;;;;;;;;4753490;30;20051;-61
2022/06/12 14:58:50;;;;;;;14.15;2.17;;;;;;;;;;4753381;30;20082;-63
2022/06/12 15:01:21;;;;;;;5.75;2.00;;;;;;;;;;4753502;30;20055;-63
2022/06/12 15:03:53;;;;;;;8.27;2.08;;;;;;;;;;4753182;30;20056;-63
2022/06/12 15:06:20;;;;;;;12.13;1.80;;;;;;;;;;4753292;30;20044;-64
2022/06/12 15:08:48;;;;;;;6.00;2.03;;;;;;;;;;4753235;30;20072;-64
2022/06/12 15:11:22;;;;;;;8.88;1.85;;;;;;;;;;4753190;30;20052;-63
2022/06/12 15:13:53;;;;;;;5.50;1.30;;;;;;;;;;4753357;30;20125;-64
2022/06/12 15:16:22;;;;;;;5.53;1.58;;;;;;;;;;4753140;30;20075;-63
2022/06/12 15:18:49;;;;;;;6.00;1.38;;;;;;;;;;4753077;30;20051;-62
2022/06/12 15:21:23;;;;;;;7.80;2.00;;;;;;;;;;4753072;30;21030;-62
2022/06/12 15:23:52;;;;;;;9.35;2.30;;;;;;;;;;4752785;30;20044;-63
2022/06/12 15:31:58;;;;;;;4.65;1.50;;;;;;;;;;4752711;30;20059;-63
2022/06/12 15:34:30;;;;;;;6.70;2.03;;;;;;;;;;4752729;30;20055;-62
2022/06/12 15:36:59;;;;;;;6.03;1.52;;;;;;;;;;4752863;30;20097;-62
2022/06/12 15:39:27;;;;;;;7.43;1.85;;;;;;;;;;4752820;30;20123;-60
2022/06/12 15:41:54;;;;;;;7.68;1.80;;;;;;;;;;4752619;30;20082;-63
2022/06/12 15:44:22;;;;;;;12.32;5.78;;;;;;;;;;4752428;30;20128;-62
2022/06/12 15:46:49;;;;;;;23.77;11.57;;;;;;;;;;4752543;30;20076;-63
2022/06/12 15:49:19;;;;;;;7.97;2.40;;;;;;;;;;4752562;30;20045;-62
2022/06/12 15:51:49;;;;;;;5.50;1.65;;;;;;;;;;4752463;30;20405;-62
2022/06/12 15:54:19;;;;;;;8.90;1.42;;;;;;;;;;4752315;30;20528;-62
2022/06/12 15:56:49;;;;;;;8.65;1.55;;;;;;;;;;4752219;30;20049;-63
2022/06/12 15:59:17;;;;;;;7.18;1.77;;;;;;;;;;4752161;30;20452;-62